createdAt,value
2022-10-02T04:01:04.415Z,99070.16
2022-10-02T04:05:30.365Z,99073.41
2022-10-02T04:10:00.115Z,99077.81
2022-10-02T04:14:25.638Z,99076.03
2022-10-02T04:18:50.194Z,99074.50
2022-10-02T04:23:15.526Z,99078.94
2022-10-02T04:27:36.418Z,99078.31
2022-10-02T04:31:52.704Z,99079.47
2022-10-02T04:36:16.420Z,99073.06
2022-10-02T04:40:50.198Z,99071.75
2022-10-02T04:45:14.945Z,99073.06
2022-10-02T04:49:46.941Z,99080.97
2022-10-02T04:54:17.055Z,99077.81
2022-10-02T04:58:37.838Z,99088.16
2022-10-02T05:03:11.072Z,99081.78
2022-10-02T05:07:53.189Z,99080.97
2022-10-02T05:12:30.567Z,99072.78
2022-10-02T05:17:06.241Z,99077.88
2022-10-02T05:21:27.577Z,99095.53
2022-10-02T05:25:41.948Z,99091.31
2022-10-02T05:30:13.733Z,99087.22
2022-10-02T05:34:40.392Z,99064.66
2022-10-02T05:38:54.785Z,99066.28
2022-10-02T05:43:11.061Z,99067.44
2022-10-02T05:47:42.836Z,99071.66
2022-10-02T05:52:06.642Z,99059.41
2022-10-02T05:56:22.758Z,99055.16
2022-10-02T06:00:43.101Z,99042.06
2022-10-02T06:05:07.645Z,99047.63
2022-10-02T06:09:39.730Z,99051.38
2022-10-02T06:13:58.694Z,99050.91
2022-10-02T06:18:17.792Z,99048.94
2022-10-02T06:22:35.593Z,99056.78
2022-10-02T06:27:03.148Z,99064.66
2022-10-02T06:31:29.149Z,99063.00
2022-10-02T06:35:42.966Z,99054.19
2022-10-02T06:40:18.875Z,99056.47
2022-10-02T06:44:51.776Z,99066.28
2022-10-02T06:49:30.333Z,99059.06
2022-10-02T06:54:08.911Z,99070.81
2022-10-02T06:58:56.349Z,99064.94
2022-10-02T07:03:43.591Z,99061.69
2022-10-02T07:08:22.825Z,99071.50
2022-10-02T07:12:43.862Z,99063.31
2022-10-02T07:17:11.042Z,99059.22
2022-10-02T07:21:39.319Z,99057.09
2022-10-02T07:26:04.997Z,99062.03
2022-10-02T07:30:18.082Z,99062.66
2022-10-02T07:35:00.809Z,99067.41
2022-10-02T07:39:36.311Z,99081.44
2022-10-02T07:44:02.428Z,99089.47
2022-10-02T07:48:41.223Z,99080.94
2022-10-02T07:53:13.757Z,99072.72
2022-10-02T07:57:35.939Z,99068.44
2022-10-02T08:01:50.582Z,99066.75
2022-10-02T08:06:03.464Z,99060.53
2022-10-02T08:10:16.367Z,99072.63
2022-10-02T08:14:46.668Z,99068.69
2022-10-02T08:19:08.619Z,99086.84
2022-10-02T08:23:38.609Z,99088.78
2022-10-02T08:28:17.052Z,99084.47
2022-10-02T08:32:34.911Z,99081.63
2022-10-02T08:36:49.434Z,99072.44
2022-10-02T08:41:22.327Z,99079.97
2022-10-02T08:45:46.513Z,99082.34
2022-10-02T08:50:15.061Z,99087.41
2022-10-02T08:55:04.777Z,99087.69
2022-10-02T08:59:31.483Z,99090.97
2022-10-02T09:03:58.848Z,99078.78
2022-10-02T09:08:26.317Z,99074.34
2022-10-02T09:12:58.411Z,99078.88
2022-10-02T09:17:35.317Z,99089.06
2022-10-02T09:22:01.197Z,99092.34
2022-10-02T09:26:47.135Z,99109.69
2022-10-02T09:31:30.791Z,99091.84
2022-10-02T09:36:30.844Z,99091.09
2022-10-02T09:41:14.890Z,99081.53
2022-10-02T09:45:45.387Z,99090.94
2022-10-02T09:50:18.027Z,99089.41
2022-10-02T09:55:12.264Z,99088.75
2022-10-02T09:59:42.474Z,99083.13
2022-10-02T10:03:53.868Z,99084.50
2022-10-02T10:08:08.274Z,99090.75
2022-10-02T10:12:49.355Z,99090.69
2022-10-02T10:17:13.413Z,99101.63
2022-10-02T10:21:38.238Z,99093.84
2022-10-02T10:26:16.268Z,99087.78
2022-10-02T10:30:56.047Z,99072.94
2022-10-02T10:35:41.714Z,99083.00
2022-10-02T10:40:21.040Z,99089.50
2022-10-02T10:44:54.188Z,99085.16
2022-10-02T10:49:35.443Z,99085.97
2022-10-02T10:54:12.130Z,99081.50
2022-10-02T10:58:46.277Z,99080.94
2022-10-02T11:03:04.476Z,99077.44
2022-10-02T11:07:18.774Z,99077.81
2022-10-02T11:11:42.901Z,99085.44
2022-10-02T11:15:58.025Z,99087.94
2022-10-02T11:20:36.709Z,99082.81
2022-10-02T11:25:18.275Z,99100.00
2022-10-02T11:29:51.909Z,99087.72
2022-10-02T11:34:28.383Z,99084.72
2022-10-02T11:39:05.269Z,99088.75
2022-10-02T11:43:22.861Z,99092.69
2022-10-02T11:47:47.027Z,99098.69
2022-10-02T11:52:08.733Z,99088.81
2022-10-02T11:56:31.041Z,99082.13
2022-10-02T12:01:07.775Z,99087.66
2022-10-02T12:05:53.361Z,99093.44
2022-10-02T12:10:28.363Z,99091.56
2022-10-02T12:15:00.118Z,99099.00
2022-10-02T12:19:26.846Z,99099.22
2022-10-02T12:24:08.021Z,99107.81
2022-10-02T12:28:54.884Z,99111.88
2022-10-02T12:33:12.951Z,99118.47
2022-10-02T12:37:42.888Z,99111.31
2022-10-02T12:42:13.727Z,99120.84
2022-10-02T12:46:50.088Z,99126.25
2022-10-02T12:51:07.669Z,99123.16
2022-10-02T12:55:37.896Z,99116.09
2022-10-02T12:59:59.014Z,99093.94
2022-10-02T13:04:29.243Z,99089.88
2022-10-02T13:09:06.914Z,99093.50
2022-10-02T13:13:36.556Z,99101.47
2022-10-02T13:17:53.251Z,99101.53
2022-10-02T13:22:19.305Z,99102.88
2022-10-02T13:26:39.998Z,99105.44
2022-10-02T13:31:18.952Z,99111.94
2022-10-02T13:35:53.526Z,99126.09
2022-10-02T13:40:38.331Z,99106.16
2022-10-02T13:44:56.282Z,99116.47
2022-10-02T13:49:43.610Z,99107.22
2022-10-02T13:54:22.426Z,99085.69
2022-10-02T13:58:50.789Z,99075.13
2022-10-02T14:03:24.108Z,99076.13
2022-10-02T14:08:22.588Z,99083.81
2022-10-02T14:12:57.734Z,99093.03
2022-10-02T14:17:32.004Z,99115.00
2022-10-02T14:21:49.395Z,99113.59
2022-10-02T14:26:13.941Z,99124.59
2022-10-02T14:30:46.820Z,99117.38
2022-10-02T14:35:29.461Z,99112.38
2022-10-02T14:39:41.882Z,99106.16
2022-10-02T14:44:06.565Z,99155.47
2022-10-02T14:48:24.575Z,99164.81
2022-10-02T14:52:51.600Z,99126.34
2022-10-02T14:57:19.146Z,99108.03
2022-10-02T15:01:46.847Z,99110.84
2022-10-02T15:06:10.558Z,99109.56
2022-10-02T15:10:26.532Z,99117.78
2022-10-02T15:15:11.326Z,99144.38
2022-10-02T15:19:25.993Z,99154.88
2022-10-02T15:23:44.690Z,99152.97
2022-10-02T15:28:36.395Z,99154.59
2022-10-02T15:32:58.050Z,99166.28
2022-10-02T15:37:34.687Z,99171.53
2022-10-02T15:42:04.149Z,99173.94
2022-10-02T15:46:27.737Z,99159.22
2022-10-02T15:51:05.609Z,99154.31
2022-10-02T15:55:35.223Z,99155.81
2022-10-02T16:00:14.048Z,99155.16
2022-10-02T16:04:28.486Z,99166.47
2022-10-02T16:08:39.974Z,99159.59
2022-10-02T16:13:22.881Z,99169.63
2022-10-02T16:17:53.092Z,99190.75
2022-10-02T16:22:26.392Z,99194.56
2022-10-02T16:27:08.940Z,99194.38
2022-10-02T16:31:23.547Z,99200.78
2022-10-02T16:35:59.598Z,99196.09
2022-10-02T16:40:30.990Z,99200.03
2022-10-02T16:44:48.342Z,99202.03
2022-10-02T16:49:23.611Z,99200.56
2022-10-02T16:53:44.902Z,99204.00
2022-10-02T16:58:10.290Z,99215.63
2022-10-02T17:02:38.152Z,99239.41
2022-10-02T17:06:58.129Z,99247.44
2022-10-02T17:11:09.601Z,99246.28
2022-10-02T17:15:52.166Z,99236.94
2022-10-02T17:20:16.705Z,99214.19
2022-10-02T17:24:33.475Z,99209.09
2022-10-02T17:29:12.390Z,99215.38
2022-10-02T17:33:27.707Z,99206.06
2022-10-02T17:37:45.257Z,99216.88
2022-10-02T17:42:06.965Z,99233.94
2022-10-02T17:46:40.536Z,99257.34
2022-10-02T17:51:14.955Z,99258.69
2022-10-02T17:55:56.625Z,99266.75
2022-10-02T18:00:19.441Z,99291.81
2022-10-02T18:04:45.810Z,99308.34
2022-10-02T18:09:09.588Z,99313.31
2022-10-02T18:14:03.205Z,99330.31
2022-10-02T18:18:37.574Z,99341.31
2022-10-02T18:22:58.453Z,99360.81
2022-10-02T18:27:39.823Z,99368.16
2022-10-02T18:32:13.254Z,99382.72
2022-10-02T18:36:56.141Z,99389.09
2022-10-02T18:41:27.907Z,99396.34
2022-10-02T18:45:42.406Z,99401.72
2022-10-02T18:50:09.082Z,99407.97
2022-10-02T18:54:29.671Z,99414.34
2022-10-02T18:59:06.165Z,99418.09
2022-10-02T19:03:45.277Z,99414.84
2022-10-02T19:08:11.272Z,99430.22
2022-10-02T19:12:24.183Z,99431.69
2022-10-02T19:16:35.754Z,99444.63
2022-10-02T19:20:53.078Z,99450.69
2022-10-02T19:25:13.614Z,99443.13
2022-10-02T19:29:48.640Z,99458.06
2022-10-02T19:34:05.227Z,99460.00
2022-10-02T19:38:36.938Z,99472.75
2022-10-02T19:43:01.926Z,99472.88
2022-10-02T19:47:27.326Z,99482.22
2022-10-02T19:51:44.440Z,99488.69
2022-10-02T19:55:58.522Z,99490.97
2022-10-02T20:00:18.975Z,99495.19
2022-10-02T20:04:32.086Z,99491.22
2022-10-02T20:08:49.489Z,99499.91
2022-10-02T20:13:28.298Z,99509.47
2022-10-02T20:17:40.229Z,99509.09
2022-10-02T20:21:54.825Z,99521.78
2022-10-02T20:26:11.132Z,99523.38
2022-10-02T20:30:26.868Z,99528.00
2022-10-02T20:34:50.437Z,99534.16
2022-10-02T20:39:14.070Z,99542.22
2022-10-02T20:43:34.785Z,99550.53
2022-10-02T20:48:01.130Z,99564.66
2022-10-02T20:52:13.786Z,99576.59
2022-10-02T20:56:41.860Z,99574.69
2022-10-02T21:01:14.808Z,99570.66
2022-10-02T21:05:51.402Z,99585.25
2022-10-02T21:10:40.530Z,99580.09
2022-10-02T21:15:26.175Z,99585.84
2022-10-02T21:20:14.111Z,99593.69
2022-10-02T21:24:47.666Z,99601.13
2022-10-02T21:29:11.876Z,99612.16
